Time;durP1;ratioP1;P1;durP2;ratioP2;P2;SDS_P1;SDS_P2;PMS_P1;PMS_P2;Temp;Humidity;BMP_temperature;BMP_pressure;BME280_temperature;BME280_humidity;BME280_pressure;Samples;Min_cycle;Max_cycle;Signal;HPM_P1;HPM_P2
2023/09/27 00:01:39;;;;;;;20.17;12.70;;;;;;;;;;6124597;23;20288;-75
2023/09/27 00:04:05;;;;;;;22.25;12.63;;;;;;;;;;6124384;23;19998;-73
2023/09/27 00:06:31;;;;;;;19.95;12.30;;;;;;;;;;6098167;23;20014;-75
2023/09/27 00:08:57;;;;;;;17.13;12.73;;;;;;;;;;6124327;23;20009;-74
2023/09/27 00:11:23;;;;;;;19.77;13.23;;;;;;;;;;6124395;23;20006;-74
2023/09/27 00:13:49;;;;;;;21.40;13.35;;;;;;;;;;6122971;23;20010;-75
2023/09/27 00:16:22;;;;;;;22.83;12.45;;;;;;;;;;6098742;23;20359;-74
2023/09/27 00:18:48;;;;;;;20.98;12.85;;;;;;;;;;6125204;23;20002;-74
2023/09/27 00:21:16;;;;;;;24.15;13.80;;;;;;;;;;6125388;23;20009;-77
2023/09/27 00:23:42;;;;;;;20.23;13.10;;;;;;;;;;6100697;23;20002;-77
2023/09/27 00:26:14;;;;;;;18.67;12.50;;;;;;;;;;6128661;23;20009;-78
2023/09/27 00:28:40;;;;;;;17.95;12.00;;;;;;;;;;6104309;23;20137;-78
2023/09/27 00:31:15;;;;;;;20.50;12.93;;;;;;;;;;6129893;23;20072;-78
2023/09/27 00:33:41;;;;;;;21.50;12.82;;;;;;;;;;6105368;23;20010;-77
2023/09/27 00:36:07;;;;;;;20.80;13.00;;;;;;;;;;6134756;23;20105;-77
2023/09/27 00:38:33;;;;;;;18.00;12.80;;;;;;;;;;6136464;23;20049;-77
2023/09/27 00:40:59;;;;;;;21.80;13.13;;;;;;;;;;6111301;23;20006;-77
2023/09/27 00:43:29;;;;;;;23.08;13.52;;;;;;;;;;6138980;23;19997;-78
2023/09/27 00:46:04;;;;;;;21.83;13.13;;;;;;;;;;6117735;23;20081;-77
2023/09/27 00:48:31;;;;;;;19.27;12.10;;;;;;;;;;6090563;23;20416;-76
2023/09/27 00:50:57;;;;;;;24.45;13.32;;;;;;;;;;6134819;23;20018;-78
2023/09/27 00:53:26;;;;;;;19.98;12.95;;;;;;;;;;6100243;23;20495;-77
2023/09/27 00:55:55;;;;;;;19.00;12.90;;;;;;;;;;6126135;23;20006;-77
2023/09/27 00:58:21;;;;;;;24.60;12.95;;;;;;;;;;6099336;23;20174;-77
2023/09/27 01:00:52;;;;;;;18.75;12.98;;;;;;;;;;6097991;23;20017;-77
2023/09/27 01:03:19;;;;;;;21.90;13.32;;;;;;;;;;6097813;23;20007;-77
2023/09/27 01:05:45;;;;;;;27.27;14.60;;;;;;;;;;6124337;23;20029;-79
2023/09/27 01:08:11;;;;;;;22.35;13.75;;;;;;;;;;6124450;23;20080;-78
2023/09/27 01:10:39;;;;;;;26.30;13.95;;;;;;;;;;6123976;23;20002;-76
2023/09/27 01:13:05;;;;;;;21.92;15.55;;;;;;;;;;6098478;23;20010;-78
2023/09/27 01:15:33;;;;;;;22.45;14.77;;;;;;;;;;6092391;23;20022;-78
2023/09/27 01:18:01;;;;;;;22.45;13.68;;;;;;;;;;6094414;23;20011;-79
2023/09/27 01:20:29;;;;;;;21.55;14.13;;;;;;;;;;6094593;23;20006;-78
2023/09/27 01:22:59;;;;;;;20.58;13.73;;;;;;;;;;6094335;23;20003;-78
2023/09/27 01:25:30;;;;;;;23.37;14.03;;;;;;;;;;6093313;23;20062;-78
2023/09/27 01:28:03;;;;;;;24.45;13.90;;;;;;;;;;6095099;23;20061;-79
2023/09/27 01:30:32;;;;;;;20.38;13.00;;;;;;;;;;6095142;23;20013;-78
2023/09/27 01:33:09;;;;;;;19.70;13.40;;;;;;;;;;6093076;23;20010;-79
2023/09/27 01:35:40;;;;;;;19.45;13.88;;;;;;;;;;6093215;23;20045;-77
2023/09/27 01:38:11;;;;;;;23.80;14.23;;;;;;;;;;6094561;23;20009;-78
2023/09/27 01:40:48;;;;;;;26.08;15.40;;;;;;;;;;6093128;23;20041;-77
2023/09/27 01:43:13;;;;;;;23.35;14.60;;;;;;;;;;6069682;23;20013;-78
2023/09/27 01:45:42;;;;;;;24.02;15.30;;;;;;;;;;6092719;23;20006;-79
2023/09/27 01:48:09;;;;;;;21.33;13.48;;;;;;;;;;6092955;23;20006;-78
2023/09/27 01:50:35;;;;;;;24.02;13.70;;;;;;;;;;6093295;23;20013;-77
2023/09/27 01:53:03;;;;;;;18.05;13.05;;;;;;;;;;6068512;23;20435;-78
2023/09/27 01:55:29;;;;;;;26.48;13.40;;;;;;;;;;6092932;23;20479;-77
2023/09/27 01:58:00;;;;;;;23.83;13.60;;;;;;;;;;6092656;23;20049;-78
2023/09/27 02:00:26;;;;;;;28.23;14.07;;;;;;;;;;6092451;23;20014;-79
2023/09/27 02:02:57;;;;;;;22.50;13.55;;;;;;;;;;6092274;23;20007;-77
2023/09/27 02:05:26;;;;;;;24.42;13.02;;;;;;;;;;6094031;23;20009;-78
2023/09/27 02:07:52;;;;;;;22.20;14.25;;;;;;;;;;6094514;23;20002;-77
2023/09/27 02:10:24;;;;;;;23.85;13.38;;;;;;;;;;6094122;23;20114;-78
2023/09/27 02:12:49;;;;;;;;;;;;;;;;;;6069534;23;20073;-78
2023/09/27 02:15:16;;;;;;;19.15;13.52;;;;;;;;;;6092465;23;19921;-78
2023/09/27 02:17:45;;;;;;;24.50;13.27;;;;;;;;;;6093109;23;20061;-77
2023/09/27 02:20:17;;;;;;;21.88;13.52;;;;;;;;;;6092869;23;20018;-78
2023/09/27 02:22:50;;;;;;;23.23;13.70;;;;;;;;;;6094776;23;20420;-78
2023/09/27 02:25:17;;;;;;;21.65;13.15;;;;;;;;;;6093437;23;20475;-77
2023/09/27 02:27:46;;;;;;;19.27;12.80;;;;;;;;;;6093379;23;20069;-79
2023/09/27 02:30:12;;;;;;;21.45;13.25;;;;;;;;;;6093064;23;20002;-77
2023/09/27 02:32:42;;;;;;;38.38;22.10;;;;;;;;;;6092936;23;20018;-78
2023/09/27 02:35:17;;;;;;;21.13;14.35;;;;;;;;;;6093058;23;20021;-77
2023/09/27 02:37:44;;;;;;;24.33;13.75;;;;;;;;;;6093724;23;20011;-79
2023/09/27 02:40:11;;;;;;;22.95;13.77;;;;;;;;;;6095970;23;20069;-79
2023/09/27 02:42:43;;;;;;;23.48;13.15;;;;;;;;;;6094971;23;20014;-79
2023/09/27 02:45:11;;;;;;;28.17;12.45;;;;;;;;;;6096118;23;20099;-77
2023/09/27 02:47:39;;;;;;;21.55;12.13;;;;;;;;;;6098692;23;20054;-78
2023/09/27 02:50:10;;;;;;;23.92;13.95;;;;;;;;;;6103601;23;20066;-78
2023/09/27 02:52:39;;;;;;;19.65;12.65;;;;;;;;;;6105845;23;20003;-77
2023/09/27 02:55:09;;;;;;;19.33;12.52;;;;;;;;;;6108946;23;20447;-79
2023/09/27 02:57:35;;;;;;;20.17;13.48;;;;;;;;;;6109076;23;20002;-77
2023/09/27 03:00:02;;;;;;;24.15;12.55;;;;;;;;;;6105860;23;20006;-78
2023/09/27 03:02:28;;;;;;;22.80;12.48;;;;;;;;;;6102688;23;20018;-77
2023/09/27 03:04:54;;;;;;;19.00;13.02;;;;;;;;;;6095775;23;20007;-78
2023/09/27 03:07:19;;;;;;;21.63;13.20;;;;;;;;;;6099030;23;20116;-77
2023/09/27 03:09:47;;;;;;;22.98;11.70;;;;;;;;;;6098786;23;20006;-78
2023/09/27 03:12:13;;;;;;;18.40;13.05;;;;;;;;;;6095860;23;20034;-77
2023/09/27 03:14:39;;;;;;;19.63;12.15;;;;;;;;;;6094324;23;20033;-78
2023/09/27 03:17:04;;;;;;;20.80;11.20;;;;;;;;;;6124609;23;20018;-79
2023/09/27 03:19:32;;;;;;;23.17;12.10;;;;;;;;;;6098995;23;20030;-79
2023/09/27 03:21:58;;;;;;;20.50;12.40;;;;;;;;;;6098834;23;20010;-78
2023/09/27 03:24:26;;;;;;;21.65;13.27;;;;;;;;;;6125969;23;20007;-78
2023/09/27 03:26:54;;;;;;;23.38;12.52;;;;;;;;;;6126558;23;20002;-77
2023/09/27 03:29:20;;;;;;;19.42;12.05;;;;;;;;;;6100338;23;20036;-76
2023/09/27 03:31:46;;;;;;;22.00;13.25;;;;;;;;;;6101198;23;20002;-77
2023/09/27 03:34:12;;;;;;;25.17;13.52;;;;;;;;;;6125103;23;19998;-77
2023/09/27 03:36:38;;;;;;;25.95;13.77;;;;;;;;;;6101342;23;20016;-77
2023/09/27 03:39:04;;;;;;;19.48;12.60;;;;;;;;;;6127863;23;20010;-77
2023/09/27 03:41:30;;;;;;;20.02;12.65;;;;;;;;;;6101136;23;20396;-76
2023/09/27 03:43:56;;;;;;;24.00;13.10;;;;;;;;;;6101743;23;20002;-77
2023/09/27 03:46:22;;;;;;;21.55;13.50;;;;;;;;;;6100657;23;20002;-75
2023/09/27 03:48:48;;;;;;;21.17;13.70;;;;;;;;;;6125772;23;20085;-76
2023/09/27 03:51:26;;;;;;;20.98;13.70;;;;;;;;;;6074454;23;20013;-76
2023/09/27 03:53:52;;;;;;;23.15;13.23;;;;;;;;;;6100608;23;20005;-74
2023/09/27 03:56:22;;;;;;;28.33;13.57;;;;;;;;;;6126793;23;20009;-74
2023/09/27 03:58:50;;;;;;;29.33;18.77;;;;;;;;;;6101788;23;20084;-74
2023/09/27 04:01:16;;;;;;;26.70;15.57;;;;;;;;;;6102151;23;20049;-75
2023/09/27 04:03:46;;;;;;;22.70;13.35;;;;;;;;;;6128828;23;20022;-74
2023/09/27 04:06:12;;;;;;;20.83;13.95;;;;;;;;;;6129722;23;20082;-77
2023/09/27 04:08:38;;;;;;;25.02;15.88;;;;;;;;;;6129202;23;20084;-76
2023/09/27 04:11:08;;;;;;;30.63;15.80;;;;;;;;;;6100426;23;20383;-75
2023/09/27 04:13:36;;;;;;;35.75;15.07;;;;;;;;;;6098646;23;20084;-76
2023/09/27 04:16:03;;;;;;;27.13;15.02;;;;;;;;;;6124845;23;20013;-77
2023/09/27 04:18:32;;;;;;;23.73;13.50;;;;;;;;;;6098989;23;20359;-75
2023/09/27 04:21:08;;;;;;;23.42;13.52;;;;;;;;;;6098593;23;20396;-76
2023/09/27 04:23:36;;;;;;;22.85;13.57;;;;;;;;;;6099439;23;20089;-75
2023/09/27 04:26:04;;;;;;;35.20;15.02;;;;;;;;;;6099277;23;20035;-75
2023/09/27 04:28:33;;;;;;;34.60;13.98;;;;;;;;;;6098992;23;20013;-75
2023/09/27 04:31:00;;;;;;;27.08;13.77;;;;;;;;;;6099539;23;20010;-79
2023/09/27 04:33:26;;;;;;;34.97;14.88;;;;;;;;;;6126980;23;20336;-79
2023/09/27 04:35:51;;;;;;;23.05;13.43;;;;;;;;;;6126367;23;20006;-77
2023/09/27 04:38:18;;;;;;;42.40;15.65;;;;;;;;;;6099870;23;20108;-79
2023/09/27 04:40:43;;;;;;;25.15;14.27;;;;;;;;;;6100307;23;20012;-79
2023/09/27 04:43:09;;;;;;;24.30;13.52;;;;;;;;;;6124639;23;20002;-79
2023/09/27 04:45:37;;;;;;;23.10;13.52;;;;;;;;;;6099983;23;20057;-78
2023/09/27 04:48:04;;;;;;;23.30;14.10;;;;;;;;;;6126595;23;20086;-79
2023/09/27 04:50:31;;;;;;;27.77;13.05;;;;;;;;;;6126442;23;20330;-78
2023/09/27 04:52:57;;;;;;;22.88;13.02;;;;;;;;;;6125973;23;20024;-79
2023/09/27 04:55:26;;;;;;;25.48;13.20;;;;;;;;;;6099490;23;20009;-75
2023/09/27 04:57:52;;;;;;;27.60;13.55;;;;;;;;;;6098161;23;20013;-76
2023/09/27 05:00:19;;;;;;;25.67;12.82;;;;;;;;;;6098114;23;20349;-75
2023/09/27 05:02:46;;;;;;;20.10;12.75;;;;;;;;;;6098304;23;20021;-75
2023/09/27 05:05:12;;;;;;;21.35;12.95;;;;;;;;;;6098792;23;20077;-75
2023/09/27 05:07:39;;;;;;;20.05;12.57;;;;;;;;;;6124207;23;20010;-77
2023/09/27 05:10:06;;;;;;;26.33;13.85;;;;;;;;;;6124617;23;20037;-77
2023/09/27 05:12:33;;;;;;;23.33;13.82;;;;;;;;;;6122674;23;20017;-78
2023/09/27 05:14:58;;;;;;;24.25;13.63;;;;;;;;;;6124200;23;20097;-76
2023/09/27 05:17:25;;;;;;;21.40;12.60;;;;;;;;;;6098170;23;20049;-76
2023/09/27 05:19:51;;;;;;;23.27;13.30;;;;;;;;;;6118918;23;20052;-77
2023/09/27 05:22:19;;;;;;;23.33;13.82;;;;;;;;;;6122156;23;20006;-76
2023/09/27 05:24:48;;;;;;;26.17;13.90;;;;;;;;;;6123674;23;20010;-76
2023/09/27 05:27:13;;;;;;;20.40;13.55;;;;;;;;;;6097921;23;20419;-75
2023/09/27 05:29:43;;;;;;;20.23;12.65;;;;;;;;;;6121868;23;20041;-75
2023/09/27 05:32:12;;;;;;;25.63;12.68;;;;;;;;;;6096904;23;20010;-74
2023/09/27 05:34:54;;;;;;;25.00;12.77;;;;;;;;;;6097230;23;20014;-76
2023/09/27 05:37:35;;;;;;;21.33;12.27;;;;;;;;;;6096285;23;20005;-77
2023/09/27 05:40:04;;;;;;;27.90;13.48;;;;;;;;;;6122361;23;20044;-77
2023/09/27 05:42:30;;;;;;;23.27;13.65;;;;;;;;;;6120478;23;20009;-79
2023/09/27 05:44:56;;;;;;;26.48;13.90;;;;;;;;;;6099943;23;20010;-77
2023/09/27 05:47:24;;;;;;;26.30;13.93;;;;;;;;;;6100377;23;20293;-75
2023/09/27 05:49:50;;;;;;;22.98;13.50;;;;;;;;;;6100196;23;20432;-76
2023/09/27 05:52:17;;;;;;;25.23;14.50;;;;;;;;;;6100838;23;20009;-77
2023/09/27 05:54:44;;;;;;;23.10;13.40;;;;;;;;;;6100356;23;20009;-75
2023/09/27 05:57:10;;;;;;;23.67;13.93;;;;;;;;;;6126272;23;20012;-73
2023/09/27 05:59:40;;;;;;;24.60;13.88;;;;;;;;;;6120269;23;20005;-73
2023/09/27 06:02:16;;;;;;;26.88;13.65;;;;;;;;;;6099599;23;20017;-75
2023/09/27 06:04:47;;;;;;;27.73;14.27;;;;;;;;;;6114997;23;20009;-74
2023/09/27 06:07:15;;;;;;;26.00;12.93;;;;;;;;;;6094446;23;20093;-77
2023/09/27 06:09:41;;;;;;;26.52;13.50;;;;;;;;;;6118722;23;20049;-75
2023/09/27 06:12:10;;;;;;;26.02;12.82;;;;;;;;;;6120902;23;20070;-75
2023/09/27 06:14:38;;;;;;;31.40;14.52;;;;;;;;;;6094902;23;20089;-75
2023/09/27 06:17:07;;;;;;;26.00;13.25;;;;;;;;;;6119657;23;20045;-75
2023/09/27 06:19:38;;;;;;;22.40;14.13;;;;;;;;;;6091887;23;20471;-77
2023/09/27 06:22:04;;;;;;;24.70;14.18;;;;;;;;;;6093736;23;20022;-77
2023/09/27 06:24:31;;;;;;;25.25;13.20;;;;;;;;;;6093912;23;20439;-74
2023/09/27 06:26:58;;;;;;;21.10;14.10;;;;;;;;;;6094196;23;20586;-75
2023/09/27 06:29:27;;;;;;;33.65;16.15;;;;;;;;;;6095147;23;20018;-74
2023/09/27 06:31:53;;;;;;;22.33;13.73;;;;;;;;;;6095488;23;20010;-74
2023/09/27 06:34:32;;;;;;;24.48;14.90;;;;;;;;;;6094343;23;20013;-77
2023/09/27 06:37:07;;;;;;;21.23;14.90;;;;;;;;;;6096715;23;20006;-75
2023/09/27 06:39:33;;;;;;;33.85;18.83;;;;;;;;;;6119003;23;20059;-75
2023/09/27 06:42:07;;;;;;;26.13;16.02;;;;;;;;;;6093320;23;20569;-77
2023/09/27 06:44:40;;;;;;;31.80;16.75;;;;;;;;;;6117765;23;20113;-76
2023/09/27 06:49:55;;;;;;;31.05;17.55;;;;;;;;;;6097560;23;20005;-76
2023/09/27 06:52:22;;;;;;;32.83;18.58;;;;;;;;;;6093351;23;20432;-76
2023/09/27 06:54:52;;;;;;;30.35;19.35;;;;;;;;;;6094280;23;20498;-75
2023/09/27 06:57:23;;;;;;;30.35;19.88;;;;;;;;;;6120221;23;20319;-76
2023/09/27 06:59:50;;;;;;;40.25;20.13;;;;;;;;;;6094555;23;20014;-74
2023/09/27 07:02:16;;;;;;;31.48;19.42;;;;;;;;;;6121136;23;20408;-74
2023/09/27 07:04:42;;;;;;;31.08;19.33;;;;;;;;;;6094242;23;20010;-75
2023/09/27 07:07:09;;;;;;;32.55;19.27;;;;;;;;;;6093225;23;20169;-75
2023/09/27 07:09:37;;;;;;;28.13;18.13;;;;;;;;;;6120071;23;20586;-75
2023/09/27 07:12:03;;;;;;;30.42;19.15;;;;;;;;;;6090989;23;20038;-74
2023/09/27 07:14:29;;;;;;;38.22;20.70;;;;;;;;;;6119571;23;20073;-75
2023/09/27 07:16:54;;;;;;;30.77;18.17;;;;;;;;;;6118353;23;20026;-75
2023/09/27 07:19:21;;;;;;;34.22;18.85;;;;;;;;;;6118308;23;20363;-75
2023/09/27 07:21:50;;;;;;;30.45;15.60;;;;;;;;;;6117933;23;20102;-74
2023/09/27 07:24:17;;;;;;;28.05;17.30;;;;;;;;;;6118804;23;20028;-76
2023/09/27 07:26:43;;;;;;;27.52;15.45;;;;;;;;;;6118077;23;20001;-76
2023/09/27 07:29:09;;;;;;;33.00;16.70;;;;;;;;;;6117124;23;20033;-75
2023/09/27 07:31:35;;;;;;;24.05;15.70;;;;;;;;;;6092984;23;20105;-76
2023/09/27 07:34:01;;;;;;;28.98;16.67;;;;;;;;;;6127487;23;20439;-77
2023/09/27 07:36:27;;;;;;;30.48;16.33;;;;;;;;;;6125527;23;20014;-74
2023/09/27 07:38:59;;;;;;;31.08;17.40;;;;;;;;;;6105434;23;20693;-75
2023/09/27 07:41:25;;;;;;;30.38;17.58;;;;;;;;;;6127724;23;20005;-74
2023/09/27 07:43:54;;;;;;;34.33;17.80;;;;;;;;;;6123570;23;20006;-75
2023/09/27 07:46:21;;;;;;;27.02;17.58;;;;;;;;;;6094206;23;20116;-75
2023/09/27 07:48:47;;;;;;;32.00;18.85;;;;;;;;;;6090924;23;20009;-74
2023/09/27 07:51:18;;;;;;;30.50;18.73;;;;;;;;;;6119223;23;20540;-77
2023/09/27 07:53:46;;;;;;;33.08;18.73;;;;;;;;;;6123198;23;20068;-73
2023/09/27 07:56:22;;;;;;;31.80;19.63;;;;;;;;;;6120178;23;20014;-74
2023/09/27 07:58:51;;;;;;;33.03;18.98;;;;;;;;;;6093863;23;20096;-78
2023/09/27 08:01:20;;;;;;;28.48;18.45;;;;;;;;;;6119279;23;20440;-75
2023/09/27 08:03:48;;;;;;;26.98;18.70;;;;;;;;;;6094120;23;20013;-74
2023/09/27 08:06:19;;;;;;;30.77;16.98;;;;;;;;;;6090195;23;20041;-74
2023/09/27 08:08:51;;;;;;;23.25;13.93;;;;;;;;;;6093131;23;20010;-74
2023/09/27 08:11:19;;;;;;;27.83;13.82;;;;;;;;;;6122494;23;20009;-74
2023/09/27 08:13:44;;;;;;;25.10;13.48;;;;;;;;;;6124423;23;20006;-73
2023/09/27 08:16:10;;;;;;;26.73;14.45;;;;;;;;;;6098002;23;20021;-74
2023/09/27 08:18:37;;;;;;;25.92;16.08;;;;;;;;;;6099523;23;20006;-72
2023/09/27 08:21:03;;;;;;;22.63;15.10;;;;;;;;;;6122161;23;20380;-75
2023/09/27 08:23:29;;;;;;;32.17;16.92;;;;;;;;;;6095492;23;20080;-74
2023/09/27 08:25:55;;;;;;;26.80;15.75;;;;;;;;;;6118345;23;20006;-75
2023/09/27 08:28:22;;;;;;;26.23;16.50;;;;;;;;;;6092400;23;20096;-75
2023/09/27 08:30:48;;;;;;;24.92;16.92;;;;;;;;;;6091318;23;20021;-73
2023/09/27 08:33:14;;;;;;;27.85;17.83;;;;;;;;;;6118918;23;20372;-73
2023/09/27 08:35:42;;;;;;;28.85;17.70;;;;;;;;;;6090768;23;20033;-71
2023/09/27 08:38:08;;;;;;;30.33;18.58;;;;;;;;;;6118516;23;20013;-74
2023/09/27 08:40:34;;;;;;;26.70;18.08;;;;;;;;;;6089225;23;20020;-73
2023/09/27 08:43:00;;;;;;;29.65;18.80;;;;;;;;;;6091335;23;20006;-75
2023/09/27 08:45:27;;;;;;;29.48;17.50;;;;;;;;;;6089797;23;20069;-73
2023/09/27 08:47:56;;;;;;;46.47;19.73;;;;;;;;;;6092254;23;20017;-77
2023/09/27 08:50:24;;;;;;;24.20;17.38;;;;;;;;;;6118835;23;20005;-76
2023/09/27 08:52:53;;;;;;;27.67;17.80;;;;;;;;;;6118745;23;20080;-75
2023/09/27 08:55:19;;;;;;;34.92;17.13;;;;;;;;;;6093841;23;20006;-75
2023/09/27 08:57:50;;;;;;;21.02;13.63;;;;;;;;;;6116536;23;20017;-75
2023/09/27 09:00:22;;;;;;;24.92;17.02;;;;;;;;;;6088877;23;20025;-73
2023/09/27 09:02:52;;;;;;;29.17;16.55;;;;;;;;;;6116344;23;20010;-71
2023/09/27 09:05:18;;;;;;;24.05;16.45;;;;;;;;;;6116727;23;20020;-74
2023/09/27 09:07:44;;;;;;;25.45;16.25;;;;;;;;;;6090091;23;20010;-72
2023/09/27 09:10:16;;;;;;;23.58;16.23;;;;;;;;;;6090141;23;20011;-75
2023/09/27 09:12:42;;;;;;;;;;;;;;;;;;6091431;23;20093;-72
2023/09/27 09:15:14;;;;;;;19.95;13.65;;;;;;;;;;6115239;23;19920;-73
2023/09/27 09:17:47;;;;;;;20.17;13.70;;;;;;;;;;6091995;23;20025;-73
2023/09/27 09:20:21;;;;;;;22.75;14.20;;;;;;;;;;6118103;23;20364;-76
2023/09/27 09:22:50;;;;;;;20.27;13.48;;;;;;;;;;6118661;23;20071;-71
2023/09/27 09:25:16;;;;;;;24.38;13.73;;;;;;;;;;6119161;23;20005;-75
2023/09/27 09:27:41;;;;;;;22.25;14.63;;;;;;;;;;6119927;23;20032;-73
2023/09/27 09:30:11;;;;;;;20.77;12.95;;;;;;;;;;6093221;23;20022;-72
2023/09/27 09:32:49;;;;;;;23.30;12.68;;;;;;;;;;6119847;23;20018;-72
2023/09/27 09:35:36;;;;;;;25.67;13.52;;;;;;;;;;6091322;23;20010;-71
2023/09/27 09:38:03;;;;;;;20.13;13.77;;;;;;;;;;6093118;23;20045;-75
2023/09/27 09:40:31;;;;;;;28.33;14.35;;;;;;;;;;6093271;23;20483;-73
2023/09/27 09:42:57;;;;;;;24.58;13.93;;;;;;;;;;6093971;23;20013;-73
2023/09/27 09:45:23;;;;;;;20.85;13.52;;;;;;;;;;6092996;23;20014;-75
2023/09/27 09:47:49;;;;;;;27.48;13.02;;;;;;;;;;6091577;23;20051;-75
2023/09/27 09:50:18;;;;;;;23.52;11.98;;;;;;;;;;6090333;23;20009;-73
2023/09/27 09:52:53;;;;;;;16.90;12.23;;;;;;;;;;6114609;23;20005;-72
2023/09/27 09:55:21;;;;;;;19.13;12.52;;;;;;;;;;6095316;23;20192;-73
2023/09/27 09:57:53;;;;;;;24.10;12.40;;;;;;;;;;6090757;23;20092;-75
2023/09/27 10:00:25;;;;;;;19.90;11.38;;;;;;;;;;6118880;23;20005;-72
2023/09/27 10:03:02;;;;;;;14.00;10.00;;;;;;;;;;6088597;23;20025;-73
2023/09/27 10:05:38;;;;;;;14.85;10.63;;;;;;;;;;6088956;23;20383;-75
2023/09/27 10:08:07;;;;;;;17.10;11.93;;;;;;;;;;6090791;23;20042;-75
2023/09/27 10:10:37;;;;;;;16.27;11.38;;;;;;;;;;6089868;23;20349;-74
2023/09/27 10:13:05;;;;;;;22.13;11.88;;;;;;;;;;6089736;23;20026;-74
2023/09/27 10:15:34;;;;;;;15.95;11.50;;;;;;;;;;6084673;23;20105;-73
2023/09/27 10:18:22;;;;;;;20.38;10.77;;;;;;;;;;6085660;23;20061;-74
2023/09/27 10:21:13;;;;;;;16.45;9.70;;;;;;;;;;6085531;23;20010;-75
2023/09/27 10:23:47;;;;;;;18.73;11.05;;;;;;;;;;6081846;23;20408;-76
2023/09/27 10:26:28;;;;;;;16.30;10.88;;;;;;;;;;6088933;23;20010;-75
2023/09/27 10:29:16;;;;;;;17.02;10.32;;;;;;;;;;6090407;23;20415;-75
2023/09/27 10:31:56;;;;;;;13.98;10.75;;;;;;;;;;6089035;23;20006;-74
2023/09/27 10:34:25;;;;;;;11.15;8.77;;;;;;;;;;6087707;23;20006;-75
2023/09/27 10:36:52;;;;;;;13.77;9.80;;;;;;;;;;6089670;23;20010;-74
2023/09/27 10:39:17;;;;;;;15.00;9.27;;;;;;;;;;6087423;23;20317;-75
2023/09/27 10:41:46;;;;;;;14.98;8.93;;;;;;;;;;6085433;23;20007;-75
2023/09/27 10:44:25;;;;;;;14.93;9.27;;;;;;;;;;6086091;23;19998;-75
2023/09/27 10:46:51;;;;;;;13.07;9.27;;;;;;;;;;6084562;23;20073;-78
2023/09/27 10:49:24;;;;;;;12.18;8.73;;;;;;;;;;6086072;23;20515;-76
2023/09/27 10:51:51;;;;;;;11.35;9.10;;;;;;;;;;6083981;23;20105;-73
2023/09/27 10:54:24;;;;;;;12.25;8.63;;;;;;;;;;6085294;23;20546;-74
2023/09/27 10:56:55;;;;;;;16.55;8.80;;;;;;;;;;6084091;23;20053;-75
2023/09/27 10:59:30;;;;;;;12.70;8.20;;;;;;;;;;6060136;23;20025;-74
2023/09/27 11:01:58;;;;;;;14.98;9.02;;;;;;;;;;6086924;23;20077;-73
2023/09/27 11:04:26;;;;;;;13.90;7.45;;;;;;;;;;6084804;23;20353;-74
2023/09/27 11:06:57;;;;;;;15.18;8.43;;;;;;;;;;6085354;23;20077;-75
2023/09/27 11:09:23;;;;;;;10.87;8.03;;;;;;;;;;6085053;23;20060;-75
2023/09/27 11:11:57;;;;;;;18.13;9.68;;;;;;;;;;6084635;23;20300;-74
2023/09/27 11:14:34;;;;;;;12.60;8.13;;;;;;;;;;6062747;23;20018;-75
2023/09/27 11:17:25;;;;;;;12.50;8.57;;;;;;;;;;6058191;23;20073;-75
2023/09/27 11:19:53;;;;;;;12.75;6.90;;;;;;;;;;6059035;23;20011;-75
2023/09/27 11:22:26;;;;;;;12.32;7.50;;;;;;;;;;6057871;23;20077;-73
2023/09/27 11:24:52;;;;;;;11.80;7.18;;;;;;;;;;6057885;23;20017;-74
2023/09/27 11:27:21;;;;;;;15.27;6.90;;;;;;;;;;6059451;23;20215;-73
2023/09/27 11:29:52;;;;;;;16.30;7.53;;;;;;;;;;6057884;23;20065;-72
2023/09/27 11:32:22;;;;;;;12.80;6.80;;;;;;;;;;6060295;23;20010;-74
2023/09/27 11:34:58;;;;;;;15.55;7.88;;;;;;;;;;6057551;23;20573;-74
2023/09/27 11:37:28;;;;;;;10.65;7.47;;;;;;;;;;6060260;23;20428;-73
2023/09/27 11:39:54;;;;;;;17.20;8.23;;;;;;;;;;6055290;23;20086;-73
2023/09/27 11:42:21;;;;;;;13.98;7.60;;;;;;;;;;6053941;23;20484;-73
2023/09/27 11:45:04;;;;;;;15.85;8.75;;;;;;;;;;6058612;23;20007;-73
2023/09/27 11:47:31;;;;;;;24.85;11.05;;;;;;;;;;6036904;23;20011;-73
2023/09/27 11:49:57;;;;;;;15.73;7.85;;;;;;;;;;6061160;23;20010;-74
2023/09/27 11:52:23;;;;;;;8.80;6.60;;;;;;;;;;6060402;23;20014;-73
2023/09/27 11:54:51;;;;;;;12.90;7.68;;;;;;;;;;6060327;23;20007;-74
2023/09/27 11:57:20;;;;;;;12.70;7.25;;;;;;;;;;6055966;23;20011;-74
2023/09/27 11:59:46;;;;;;;11.43;7.43;;;;;;;;;;6057350;23;20603;-75
2023/09/27 12:02:14;;;;;;;11.50;7.03;;;;;;;;;;6057620;23;20018;-74
2023/09/27 12:04:40;;;;;;;10.40;7.07;;;;;;;;;;6059554;23;20069;-74
2023/09/27 12:07:07;;;;;;;11.73;7.53;;;;;;;;;;6058995;23;20420;-73
2023/09/27 12:09:32;;;;;;;14.27;8.55;;;;;;;;;;6061214;23;20013;-74
2023/09/27 12:11:58;;;;;;;15.73;6.80;;;;;;;;;;6058268;23;20011;-74
2023/09/27 12:14:23;;;;;;;13.52;6.65;;;;;;;;;;6060556;23;20009;-73
2023/09/27 12:16:49;;;;;;;10.00;5.80;;;;;;;;;;6079784;23;20023;-74
2023/09/27 12:19:16;;;;;;;10.85;6.38;;;;;;;;;;6063735;23;20436;-73
2023/09/27 12:21:43;;;;;;;8.07;5.80;;;;;;;;;;6063647;23;20309;-72
2023/09/27 12:24:09;;;;;;;12.05;6.15;;;;;;;;;;6065560;23;20141;-71
2023/09/27 12:26:36;;;;;;;11.50;6.95;;;;;;;;;;6062336;23;20007;-73
2023/09/27 12:29:02;;;;;;;14.00;6.53;;;;;;;;;;6062743;23;20037;-73
2023/09/27 12:31:28;;;;;;;11.10;5.45;;;;;;;;;;6037557;23;20073;-73
2023/09/27 12:33:54;;;;;;;36.28;7.93;;;;;;;;;;6063187;23;20387;-72
2023/09/27 12:36:21;;;;;;;10.23;5.85;;;;;;;;;;6062168;23;20007;-73
2023/09/27 12:38:46;;;;;;;10.27;6.07;;;;;;;;;;6061651;23;20009;-74
2023/09/27 12:41:13;;;;;;;13.65;6.75;;;;;;;;;;6060628;23;20027;-73
2023/09/27 12:43:39;;;;;;;20.55;6.47;;;;;;;;;;6062621;23;20034;-73
2023/09/27 12:46:05;;;;;;;7.93;5.57;;;;;;;;;;6061606;23;20006;-75
2023/09/27 12:48:31;;;;;;;13.98;6.28;;;;;;;;;;6061365;23;20003;-74
2023/09/27 12:50:56;;;;;;;11.23;5.78;;;;;;;;;;6057745;23;20006;-74
2023/09/27 12:53:22;;;;;;;14.10;6.10;;;;;;;;;;6060346;23;20627;-76
2023/09/27 12:55:48;;;;;;;10.00;4.93;;;;;;;;;;6012098;23;20085;-74
2023/09/27 12:58:14;;;;;;;12.55;5.72;;;;;;;;;;6059655;23;20003;-75
2023/09/27 13:00:42;;;;;;;6.88;4.75;;;;;;;;;;6058111;23;20030;-76
2023/09/27 13:03:08;;;;;;;11.55;4.68;;;;;;;;;;6060573;23;20007;-75
2023/09/27 13:05:35;;;;;;;10.57;5.72;;;;;;;;;;6034433;23;20587;-75
2023/09/27 13:08:02;;;;;;;10.10;5.68;;;;;;;;;;6056832;23;20026;-75
2023/09/27 13:10:39;;;;;;;6.95;5.03;;;;;;;;;;6059790;23;20015;-75
2023/09/27 13:13:04;;;;;;;9.73;4.70;;;;;;;;;;6060581;23;20077;-76
2023/09/27 13:15:30;;;;;;;10.02;4.85;;;;;;;;;;6077024;23;20021;-77
2023/09/27 13:17:58;;;;;;;9.95;4.50;;;;;;;;;;6118756;23;20064;-74
2023/09/27 13:20:25;;;;;;;11.98;5.03;;;;;;;;;;6092339;23;20094;-75
2023/09/27 13:22:50;;;;;;;16.40;5.20;;;;;;;;;;6120195;23;20005;-74
2023/09/27 13:25:17;;;;;;;6.97;4.82;;;;;;;;;;6092464;23;20043;-74
2023/09/27 13:27:42;;;;;;;9.80;5.32;;;;;;;;;;6093754;23;20339;-76
2023/09/27 13:30:09;;;;;;;10.38;4.70;;;;;;;;;;6092070;23;20088;-73
2023/09/27 13:32:34;;;;;;;7.22;4.60;;;;;;;;;;6092614;23;20006;-74
2023/09/27 13:35:00;;;;;;;12.57;4.90;;;;;;;;;;6093140;23;20396;-76
2023/09/27 13:37:26;;;;;;;9.07;4.45;;;;;;;;;;6093624;23;20415;-73
2023/09/27 13:39:51;;;;;;;9.77;4.07;;;;;;;;;;6093338;23;20576;-74
2023/09/27 13:42:17;;;;;;;11.20;5.18;;;;;;;;;;6095307;23;20336;-77
2023/09/27 13:44:43;;;;;;;7.10;4.90;;;;;;;;;;6094110;23;20010;-71
2023/09/27 13:47:09;;;;;;;13.43;4.78;;;;;;;;;;6094564;23;20005;-75
2023/09/27 13:49:35;;;;;;;8.98;4.35;;;;;;;;;;6119646;23;20667;-76
2023/09/27 13:52:01;;;;;;;24.10;6.00;;;;;;;;;;6094249;23;20057;-73
2023/09/27 13:54:27;;;;;;;26.35;6.07;;;;;;;;;;6120707;23;20491;-74
2023/09/27 13:56:52;;;;;;;33.17;7.35;;;;;;;;;;6120416;23;20034;-76
2023/09/27 13:59:19;;;;;;;17.80;5.07;;;;;;;;;;6093918;23;20631;-76
2023/09/27 14:01:45;;;;;;;9.73;4.38;;;;;;;;;;6120811;23;20481;-74
2023/09/27 14:04:11;;;;;;;5.30;3.67;;;;;;;;;;6119891;23;20045;-74
2023/09/27 14:06:37;;;;;;;13.18;8.27;;;;;;;;;;6095029;23;20010;-75
2023/09/27 14:09:04;;;;;;;11.93;4.13;;;;;;;;;;6120784;23;20009;-71
2023/09/27 14:11:29;;;;;;;8.48;4.60;;;;;;;;;;6120488;23;20367;-76
2023/09/27 14:13:55;;;;;;;17.75;4.45;;;;;;;;;;6093933;23;20013;-74
2023/09/27 14:16:22;;;;;;;8.02;4.13;;;;;;;;;;6118548;23;20329;-74
2023/09/27 14:18:48;;;;;;;6.15;3.42;;;;;;;;;;6091742;23;20096;-74
2023/09/27 14:21:14;;;;;;;9.55;3.67;;;;;;;;;;6119085;23;20033;-73
2023/09/27 14:23:41;;;;;;;7.72;4.20;;;;;;;;;;6094338;23;20006;-73
2023/09/27 14:26:08;;;;;;;6.25;3.65;;;;;;;;;;6093599;23;20173;-74
2023/09/27 14:28:34;;;;;;;10.88;4.32;;;;;;;;;;6090429;23;20033;-74
2023/09/27 14:31:00;;;;;;;8.18;3.50;;;;;;;;;;6117661;23;20363;-71